Pearsonville, California
Current Conditions -  °F | °C
As of 8:56 AM on Tuesday 21 Oct 2014 (Local Time) from KNID Reporting Station
Few Clouds Few Clouds  
Wind Chill: 60°   Ceiling: Unl
Heat Index: 60°   Visibility: 10mi
Dew Point: 38°   Wind: 5mph
Humidity: 44%   Direction: 270°W
Pressure: 29.93"   Gusts: NA
Location:  35.6841°N, 117.934°W
Report Text: KNID 211556Z 27004KT 10SM FEW270 16/03 A2993 RMK AO2 SLP124 T01560033 $
Loading
Personal Weather Stations






























Interactive Weather Map
Tropical Storm Tracking
New forecast layout! Learn more

10-Day Weather Forecast

Advertisements
Track Severe Weather on mobile